createdAt,value
2019-06-10T00:02:05.259Z,16.20
2019-06-10T00:04:35.368Z,16.30
2019-06-10T00:07:07.196Z,16.20
2019-06-10T00:09:36.703Z,16.00
2019-06-10T00:12:06.420Z,16.10
2019-06-10T00:14:36.934Z,16.00
2019-06-10T00:17:07.725Z,16.00
2019-06-10T00:19:37.457Z,15.80
2019-06-10T00:22:08.433Z,15.70
2019-06-10T00:24:40.786Z,15.70
2019-06-10T00:27:11.863Z,15.80
2019-06-10T00:29:40.851Z,15.80
2019-06-10T00:32:13.110Z,15.90
2019-06-10T00:34:42.036Z,16.00
2019-06-10T00:37:14.557Z,15.90
2019-06-10T00:39:42.464Z,16.10
2019-06-10T00:42:15.163Z,16.10
2019-06-10T00:44:42.879Z,16.10
2019-06-10T00:47:14.904Z,16.00
2019-06-10T00:49:43.956Z,16.00
2019-06-10T00:52:14.033Z,16.10
2019-06-10T00:54:43.480Z,16.10
2019-06-10T00:57:13.807Z,16.10
2019-06-10T00:59:43.327Z,15.90
2019-06-10T01:02:14.494Z,16.00
2019-06-10T01:04:43.944Z,15.90
2019-06-10T01:07:14.911Z,15.70
2019-06-10T01:09:44.381Z,15.40
2019-06-10T01:12:15.012Z,15.20
2019-06-10T01:14:44.755Z,15.20
2019-06-10T01:17:15.377Z,15.30
2019-06-10T01:19:45.427Z,15.40
2019-06-10T01:22:15.902Z,15.60
2019-06-10T01:24:45.368Z,15.80
2019-06-10T01:27:15.091Z,15.90
2019-06-10T01:29:44.255Z,15.70
2019-06-10T01:32:14.898Z,15.50
2019-06-10T01:34:44.611Z,15.40
2019-06-10T01:37:16.001Z,15.20
2019-06-10T01:39:45.836Z,14.90
2019-06-10T01:42:15.903Z,14.70
2019-06-10T01:44:45.639Z,14.70
2019-06-10T01:47:16.139Z,14.60
2019-06-10T01:49:45.547Z,14.70
2019-06-10T01:52:16.614Z,14.90
2019-06-10T01:54:45.937Z,15.10
2019-06-10T01:57:15.748Z,15.50
2019-06-10T01:59:46.588Z,15.60
2019-06-10T02:02:23.406Z,15.80
2019-06-10T02:04:51.717Z,16.00
2019-06-10T02:07:23.052Z,16.00
2019-06-10T02:09:52.536Z,15.90
2019-06-10T02:12:24.094Z,15.80
2019-06-10T02:14:52.717Z,15.60
2019-06-10T02:17:23.808Z,15.30
2019-06-10T02:19:53.093Z,15.10
2019-06-10T02:22:24.265Z,15.10
2019-06-10T02:24:53.725Z,15.20
2019-06-10T02:27:23.489Z,15.40
2019-06-10T02:29:52.530Z,15.40
2019-06-10T02:32:31.293Z,15.30
2019-06-10T02:35:03.420Z,15.20
2019-06-10T02:37:31.338Z,15.10
2019-06-10T02:39:54.396Z,15.10
2019-06-10T02:42:35.584Z,15.20
2019-06-10T02:45:03.975Z,15.20
2019-06-10T02:47:37.803Z,15.20
2019-06-10T02:50:08.654Z,15.20
2019-06-10T02:52:38.362Z,15.20
2019-06-10T02:55:07.352Z,15.30
2019-06-10T02:57:40.327Z,15.40
2019-06-10T03:00:22.369Z,15.40
2019-06-10T03:02:44.939Z,15.50
2019-06-10T03:05:17.021Z,15.40
2019-06-10T03:07:46.137Z,15.40
2019-06-10T03:10:16.542Z,15.40
2019-06-10T03:12:46.721Z,15.30
2019-06-10T03:15:15.875Z,15.30
2019-06-10T03:17:44.651Z,15.30
2019-06-10T03:20:13.586Z,15.50
2019-06-10T03:22:42.458Z,15.50
2019-06-10T03:25:13.102Z,15.50
2019-06-10T03:27:42.680Z,15.60
2019-06-10T03:30:19.769Z,15.50
2019-06-10T03:32:46.720Z,15.60
2019-06-10T03:35:15.112Z,15.70
2019-06-10T03:37:44.599Z,15.70
2019-06-10T03:40:14.027Z,15.70
2019-06-10T03:42:43.529Z,15.80
2019-06-10T03:45:13.268Z,15.80
2019-06-10T03:47:43.323Z,15.90
2019-06-10T03:50:13.385Z,15.90
2019-06-10T03:52:43.316Z,16.00
2019-06-10T03:55:12.662Z,16.10
2019-06-10T03:57:42.371Z,16.10
2019-06-10T04:00:14.037Z,16.10
2019-06-10T04:02:43.274Z,16.10
2019-06-10T04:05:13.287Z,16.10
2019-06-10T04:07:43.196Z,16.10
2019-06-10T04:10:13.683Z,16.20
2019-06-10T04:12:43.545Z,16.20
2019-06-10T04:15:13.375Z,16.20
2019-06-10T04:17:43.337Z,16.10
2019-06-10T04:20:15.446Z,16.00
2019-06-10T04:22:44.731Z,15.80
2019-06-10T04:25:14.607Z,15.60
2019-06-10T04:27:43.736Z,15.70
2019-06-10T04:30:16.509Z,15.90
2019-06-10T04:32:44.228Z,16.10
2019-06-10T04:35:13.120Z,16.10
2019-06-10T04:37:42.985Z,15.90
2019-06-10T04:40:13.310Z,15.80
2019-06-10T04:42:43.593Z,16.00
2019-06-10T04:45:13.538Z,16.30
2019-06-10T04:47:43.355Z,16.50
2019-06-10T04:50:23.945Z,16.80
2019-06-10T04:52:43.736Z,17.00
2019-06-10T04:55:13.063Z,17.00
2019-06-10T04:57:43.123Z,17.40
2019-06-10T05:00:14.706Z,17.50
2019-06-10T05:02:43.779Z,17.50
2019-06-10T05:05:13.474Z,17.70
2019-06-10T05:07:42.986Z,17.90
2019-06-10T05:10:12.993Z,18.40
2019-06-10T05:12:43.319Z,18.90
2019-06-10T05:15:13.544Z,19.40
2019-06-10T05:17:43.752Z,20.00
2019-06-10T05:20:13.576Z,20.60
2019-06-10T05:22:42.606Z,20.90
2019-06-10T05:25:12.837Z,21.50
2019-06-10T05:27:43.545Z,21.50
2019-06-10T05:30:13.107Z,21.10
2019-06-10T05:32:43.326Z,21.00
2019-06-10T05:35:12.560Z,21.00
2019-06-10T05:37:42.290Z,21.20
2019-06-10T05:40:12.921Z,21.40
2019-06-10T05:42:42.701Z,21.30
2019-06-10T05:45:12.422Z,20.90
2019-06-10T05:47:42.768Z,20.60
2019-06-10T05:50:12.941Z,20.40
2019-06-10T05:52:42.886Z,20.30
2019-06-10T05:55:13.008Z,20.20
2019-06-10T05:57:42.953Z,20.20
2019-06-10T06:00:14.930Z,20.10
2019-06-10T06:02:43.835Z,19.90
2019-06-10T06:05:13.756Z,20.30
2019-06-10T06:07:43.288Z,20.90
2019-06-10T06:10:13.195Z,21.30
2019-06-10T06:12:42.705Z,21.70
2019-06-10T06:15:13.078Z,21.70
2019-06-10T06:17:43.158Z,21.40
2019-06-10T06:20:13.448Z,21.30
2019-06-10T06:22:43.556Z,21.70
2019-06-10T06:25:15.511Z,22.10
2019-06-10T06:27:45.034Z,22.10
2019-06-10T06:30:18.573Z,21.80
2019-06-10T06:32:45.989Z,21.90
2019-06-10T06:35:15.214Z,22.20
2019-06-10T06:37:44.269Z,22.50
2019-06-10T06:40:14.704Z,22.60
2019-06-10T06:42:44.655Z,22.40
2019-06-10T06:45:14.693Z,21.60
2019-06-10T06:47:43.905Z,20.80
2019-06-10T06:50:13.655Z,20.70
2019-06-10T06:53:15.698Z,20.60
2019-06-10T06:55:13.648Z,20.40
2019-06-10T06:57:43.353Z,20.40
2019-06-10T07:00:37.310Z,20.10
2019-06-10T07:02:45.363Z,19.60
2019-06-10T07:05:15.132Z,19.50
2019-06-10T07:07:44.431Z,19.60
2019-06-10T07:10:13.948Z,19.60
2019-06-10T07:12:44.912Z,19.70
2019-06-10T07:15:15.444Z,20.00
2019-06-10T07:17:45.749Z,20.50
2019-06-10T07:20:15.181Z,20.80
2019-06-10T07:22:46.726Z,21.50
2019-06-10T07:25:15.971Z,22.30
2019-06-10T07:27:46.898Z,23.30
2019-06-10T07:30:15.820Z,24.00
2019-06-10T07:32:47.305Z,24.60
2019-06-10T07:35:15.641Z,25.00
2019-06-10T07:37:46.099Z,25.50
2019-06-10T07:40:15.092Z,25.50
2019-06-10T07:42:45.463Z,25.00
2019-06-10T07:45:14.515Z,24.40
2019-06-10T07:47:45.495Z,24.10
2019-06-10T07:50:16.419Z,23.90
2019-06-10T07:52:46.873Z,23.80
2019-06-10T07:55:17.106Z,24.20
2019-06-10T07:57:46.225Z,24.60
2019-06-10T08:00:16.081Z,25.30
2019-06-10T08:02:46.173Z,25.40
2019-06-10T08:05:15.646Z,25.30
2019-06-10T08:07:47.197Z,25.10
2019-06-10T08:10:15.679Z,24.50
2019-06-10T08:12:46.968Z,23.90
2019-06-10T08:15:16.276Z,24.20
2019-06-10T08:17:45.765Z,24.00
2019-06-10T08:20:17.616Z,23.60
2019-06-10T08:22:54.025Z,23.40
2019-06-10T08:25:17.492Z,22.90
2019-06-10T08:27:47.864Z,22.90
2019-06-10T08:30:22.988Z,22.90
2019-06-10T08:32:53.132Z,23.10
2019-06-10T08:35:18.628Z,23.60
2019-06-10T08:37:48.064Z,23.50
2019-06-10T08:40:17.623Z,23.10
2019-06-10T08:42:48.831Z,22.60
2019-06-10T08:45:18.035Z,22.40
2019-06-10T08:47:47.686Z,22.40
2019-06-10T08:50:21.114Z,22.50
2019-06-10T08:53:05.749Z,23.20
2019-06-10T08:55:22.864Z,23.90
2019-06-10T08:57:54.028Z,24.40
2019-06-10T09:00:25.631Z,24.00
2019-06-10T09:02:54.712Z,24.00
2019-06-10T09:05:24.059Z,24.40
2019-06-10T09:07:54.476Z,24.80
2019-06-10T09:10:23.690Z,25.30
2019-06-10T09:12:54.612Z,26.00
2019-06-10T09:15:24.209Z,26.50
2019-06-10T09:17:56.178Z,26.40
2019-06-10T09:20:24.059Z,26.00
2019-06-10T09:23:13.938Z,26.80
2019-06-10T09:25:24.740Z,26.90
2019-06-10T09:27:54.778Z,26.40
2019-06-10T09:30:24.016Z,25.70
2019-06-10T09:32:56.406Z,24.90
2019-06-10T09:35:24.496Z,25.00
2019-06-10T09:37:55.723Z,24.80
2019-06-10T09:40:33.834Z,24.90
2019-06-10T09:43:05.195Z,25.10
2019-06-10T09:45:35.129Z,25.20
2019-06-10T09:48:04.937Z,25.20
2019-06-10T09:50:48.798Z,24.80
2019-06-10T09:53:28.980Z,24.50
2019-06-10T09:55:46.323Z,24.50
2019-06-10T09:58:15.066Z,24.50
2019-06-10T10:00:50.465Z,24.50
2019-06-10T10:03:17.328Z,24.90
2019-06-10T10:05:59.355Z,25.50
2019-06-10T10:08:23.048Z,25.90
2019-06-10T10:10:58.221Z,26.40
2019-06-10T10:13:23.505Z,27.00
2019-06-10T10:15:54.374Z,27.50
2019-06-10T10:18:23.660Z,27.50
2019-06-10T10:20:58.705Z,27.50
2019-06-10T10:23:24.718Z,27.40
2019-06-10T10:25:57.010Z,26.60
2019-06-10T10:28:26.328Z,25.50
2019-06-10T10:30:57.910Z,24.80
2019-06-10T10:33:29.945Z,24.10
2019-06-10T10:35:58.201Z,23.70
2019-06-10T10:38:27.136Z,24.30
2019-06-10T10:40:59.107Z,24.50
2019-06-10T10:43:32.995Z,24.60
2019-06-10T10:46:00.384Z,24.50
2019-06-10T10:48:29.828Z,24.20
2019-06-10T10:50:58.596Z,24.50
2019-06-10T10:53:28.205Z,24.30
2019-06-10T10:55:58.217Z,24.30
2019-06-10T10:58:27.094Z,24.90
2019-06-10T11:00:57.973Z,25.40
2019-06-10T11:03:27.864Z,25.70
2019-06-10T11:06:00.705Z,26.30
2019-06-10T11:08:28.004Z,27.00
2019-06-10T11:11:01.113Z,26.90
2019-06-10T11:13:33.360Z,27.10
2019-06-10T11:16:03.718Z,26.80
2019-06-10T11:18:34.045Z,27.20
2019-06-10T11:21:05.140Z,27.40
2019-06-10T11:23:34.963Z,27.20
2019-06-10T11:26:04.644Z,27.00
2019-06-10T11:28:34.230Z,27.00
2019-06-10T11:31:03.999Z,26.70
2019-06-10T11:33:34.205Z,26.60
2019-06-10T11:36:03.202Z,26.30
2019-06-10T11:38:33.088Z,26.50
2019-06-10T11:41:02.104Z,27.50
2019-06-10T11:43:33.172Z,27.70
2019-06-10T11:46:07.648Z,27.60
2019-06-10T11:48:36.754Z,27.80
2019-06-10T11:51:06.005Z,26.30
2019-06-10T11:53:35.373Z,25.30
2019-06-10T11:56:04.665Z,24.60
2019-06-10T11:58:33.626Z,24.60
2019-06-10T12:01:05.313Z,24.60
2019-06-10T12:03:34.522Z,24.00
2019-06-10T12:06:06.404Z,23.50
2019-06-10T12:08:35.234Z,23.20
2019-06-10T12:11:06.848Z,22.90
2019-06-10T12:13:36.224Z,22.90
2019-06-10T12:17:12.299Z,23.10
2019-06-10T12:18:36.151Z,23.40
2019-06-10T12:21:05.595Z,23.90
2019-06-10T12:23:34.786Z,24.00
2019-06-10T12:26:05.177Z,24.60
2019-06-10T12:28:34.838Z,25.10
2019-06-10T12:31:06.900Z,25.50
2019-06-10T12:33:35.025Z,26.00
2019-06-10T12:36:07.179Z,26.10
2019-06-10T12:38:34.811Z,26.80
2019-06-10T12:41:08.941Z,26.80
2019-06-10T12:43:35.213Z,26.50
2019-06-10T12:46:04.399Z,26.40
2019-06-10T12:48:34.436Z,26.80
2019-06-10T12:51:08.738Z,27.00
2019-06-10T12:53:34.768Z,25.80
2019-06-10T12:56:09.821Z,25.50
2019-06-10T12:58:34.740Z,25.10
2019-06-10T13:01:06.095Z,24.80
2019-06-10T13:03:35.010Z,24.40
2019-06-10T13:06:07.286Z,24.00
2019-06-10T13:08:35.739Z,23.80
2019-06-10T13:11:05.120Z,23.50
2019-06-10T13:13:33.955Z,23.20
2019-06-10T13:16:06.651Z,23.20
2019-06-10T13:18:34.053Z,23.10
2019-06-10T13:21:09.963Z,22.90
2019-06-10T13:23:36.123Z,22.80
2019-06-10T13:26:10.818Z,22.60
2019-06-10T13:28:36.556Z,22.50
2019-06-10T13:31:08.079Z,22.20
2019-06-10T13:33:36.684Z,22.10
2019-06-10T13:36:08.705Z,22.10
2019-06-10T13:38:38.031Z,22.30
2019-06-10T13:41:07.822Z,22.30
2019-06-10T13:43:37.175Z,22.60
2019-06-10T13:46:09.005Z,22.90
2019-06-10T13:48:36.995Z,23.10
2019-06-10T13:51:09.115Z,23.00
2019-06-10T13:53:37.437Z,22.80
2019-06-10T13:56:27.628Z,22.70
2019-06-10T13:58:37.086Z,22.60
2019-06-10T14:01:11.621Z,22.30
2019-06-10T14:03:36.949Z,22.30
2019-06-10T14:06:21.181Z,22.40
2019-06-10T14:08:37.127Z,22.50
2019-06-10T14:11:07.542Z,22.40
2019-06-10T14:13:36.796Z,22.20
2019-06-10T14:16:07.456Z,22.10
2019-06-10T14:18:37.083Z,22.10
2019-06-10T14:21:08.982Z,22.10
2019-06-10T14:23:37.516Z,21.60
2019-06-10T14:26:07.928Z,21.40
2019-06-10T14:28:41.051Z,21.10
2019-06-10T14:31:30.258Z,20.90
2019-06-10T14:33:39.832Z,20.70
2019-06-10T14:36:09.206Z,20.80
2019-06-10T14:38:41.948Z,20.60
2019-06-10T14:41:12.327Z,20.20
2019-06-10T14:43:42.411Z,20.00
2019-06-10T14:46:15.774Z,19.90
2019-06-10T14:48:42.829Z,20.10
2019-06-10T14:51:14.027Z,20.00
2019-06-10T14:53:42.815Z,20.00
2019-06-10T14:56:14.852Z,20.00
2019-06-10T14:58:42.663Z,20.00
2019-06-10T15:01:19.786Z,20.20
2019-06-10T15:03:43.352Z,20.10
2019-06-10T15:06:13.508Z,20.10
2019-06-10T15:08:43.144Z,19.90
2019-06-10T15:11:13.693Z,19.70
2019-06-10T15:13:43.532Z,19.50
2019-06-10T15:16:14.257Z,19.50
2019-06-10T15:18:43.514Z,19.40
2019-06-10T15:21:13.328Z,19.50
2019-06-10T15:23:43.000Z,19.70
2019-06-10T15:26:14.805Z,19.90
2019-06-10T15:28:44.200Z,20.00
2019-06-10T15:31:15.059Z,20.20
2019-06-10T15:33:43.974Z,20.10
2019-06-10T15:36:13.274Z,20.10
2019-06-10T15:38:44.027Z,20.00
2019-06-10T15:41:17.865Z,20.00
2019-06-10T15:43:45.359Z,19.90
2019-06-10T15:46:16.280Z,20.00
2019-06-10T15:48:45.388Z,20.00
2019-06-10T15:51:17.449Z,19.70
2019-06-10T15:53:45.498Z,19.60
2019-06-10T15:56:29.349Z,19.40
2019-06-10T15:58:45.874Z,19.40
2019-06-10T16:01:18.436Z,19.50
2019-06-10T16:03:45.529Z,19.80
2019-06-10T16:06:16.069Z,19.90
2019-06-10T16:08:45.236Z,19.70
2019-06-10T16:11:18.037Z,19.80
2019-06-10T16:13:45.289Z,19.80
2019-06-10T16:16:14.839Z,19.70
2019-06-10T16:18:44.235Z,19.30
2019-06-10T16:21:15.638Z,19.10
2019-06-10T16:23:45.148Z,19.10
2019-06-10T16:26:14.859Z,18.90
2019-06-10T16:28:45.129Z,19.00
2019-06-10T16:31:15.234Z,19.10
2019-06-10T16:33:49.190Z,19.10
2019-06-10T16:36:17.332Z,19.10
2019-06-10T16:38:46.312Z,18.90
2019-06-10T16:41:15.659Z,18.80
2019-06-10T16:43:44.819Z,18.80
2019-06-10T16:46:14.114Z,19.00
2019-06-10T16:48:43.625Z,18.90
2019-06-10T16:51:13.218Z,19.10
2019-06-10T16:53:42.708Z,19.30
2019-06-10T16:56:12.363Z,19.20
2019-06-10T16:58:43.289Z,19.20
2019-06-10T17:01:12.694Z,19.30
2019-06-10T17:03:42.603Z,19.40
2019-06-10T17:06:13.133Z,19.60
2019-06-10T17:08:42.826Z,19.60
2019-06-10T17:11:13.052Z,19.30
2019-06-10T17:13:42.334Z,19.20
2019-06-10T17:16:12.742Z,19.30
2019-06-10T17:18:41.740Z,19.40
2019-06-10T17:21:13.207Z,19.50
2019-06-10T17:23:43.316Z,19.40
2019-06-10T17:26:12.875Z,19.30
2019-06-10T17:28:42.903Z,19.30
2019-06-10T17:31:11.992Z,19.30
2019-06-10T17:33:47.736Z,19.20
2019-06-10T17:37:03.108Z,19.30
2019-06-10T17:39:37.184Z,19.30
2019-06-10T17:42:12.519Z,19.30
2019-06-10T17:44:44.615Z,19.50
2019-06-10T17:47:16.088Z,19.50
2019-06-10T17:49:45.572Z,19.50
2019-06-10T17:52:14.779Z,19.50
2019-06-10T17:54:44.191Z,19.50
2019-06-10T17:57:13.277Z,19.40
2019-06-10T17:59:42.089Z,19.30
2019-06-10T18:02:12.370Z,19.30
2019-06-10T18:04:42.157Z,19.30
2019-06-10T18:07:13.064Z,19.10
2019-06-10T18:09:41.799Z,18.80
2019-06-10T18:12:12.985Z,18.60
2019-06-10T18:14:43.034Z,18.40
2019-06-10T18:17:12.888Z,18.40
2019-06-10T18:19:43.324Z,18.20
2019-06-10T18:22:13.132Z,18.10
2019-06-10T18:24:43.120Z,18.10
2019-06-10T18:27:12.847Z,18.10
2019-06-10T18:29:42.648Z,18.10
2019-06-10T18:32:12.548Z,18.20
2019-06-10T18:34:42.624Z,18.20
2019-06-10T18:37:12.000Z,18.10
2019-06-10T18:39:43.102Z,18.00
2019-06-10T18:42:12.651Z,18.10
2019-06-10T18:44:42.067Z,18.10
2019-06-10T18:47:13.263Z,17.90
2019-06-10T18:49:43.232Z,18.00
2019-06-10T18:52:12.913Z,18.00
2019-06-10T18:54:43.489Z,18.00
2019-06-10T18:57:12.635Z,18.00
2019-06-10T18:59:42.790Z,17.80
2019-06-10T19:02:12.581Z,17.70
2019-06-10T19:04:43.534Z,17.70
2019-06-10T19:07:13.039Z,17.70
2019-06-10T19:09:47.752Z,17.60
2019-06-10T19:12:13.677Z,17.50
2019-06-10T19:14:43.099Z,17.70
2019-06-10T19:17:12.504Z,17.90
2019-06-10T19:19:43.257Z,17.80
2019-06-10T19:22:13.332Z,17.80
2019-06-10T19:24:44.742Z,17.70
2019-06-10T19:27:13.200Z,17.70
2019-06-10T19:29:50.064Z,17.80
2019-06-10T19:32:13.180Z,17.40
2019-06-10T19:34:48.047Z,17.40
2019-06-10T19:37:13.287Z,17.40
2019-06-10T19:39:50.120Z,17.20
2019-06-10T19:42:14.082Z,17.10
2019-06-10T19:44:45.612Z,17.20
2019-06-10T19:47:14.320Z,17.30
2019-06-10T19:49:44.877Z,17.20
2019-06-10T19:52:14.364Z,17.10
2019-06-10T19:54:45.168Z,17.20
2019-06-10T19:57:14.703Z,17.20
2019-06-10T20:00:03.255Z,17.10
2019-06-10T20:02:15.612Z,17.10
2019-06-10T20:04:45.672Z,17.20
2019-06-10T20:07:15.276Z,17.10
2019-06-10T20:09:46.289Z,17.00
2019-06-10T20:12:15.892Z,17.00
2019-06-10T20:14:46.084Z,16.90
2019-06-10T20:17:15.664Z,16.90
2019-06-10T20:19:45.997Z,16.70
2019-06-10T20:22:15.195Z,16.60
2019-06-10T20:24:46.655Z,16.60
2019-06-10T20:27:15.036Z,16.70
2019-06-10T20:29:45.680Z,16.60
2019-06-10T20:32:14.643Z,16.50
2019-06-10T20:34:44.255Z,16.40
2019-06-10T20:37:14.351Z,16.40
2019-06-10T20:39:45.967Z,16.40
2019-06-10T20:42:15.308Z,16.40
2019-06-10T20:44:46.022Z,16.30
2019-06-10T20:47:15.128Z,16.30
2019-06-10T20:49:45.874Z,16.40
2019-06-10T20:52:15.117Z,16.60
2019-06-10T20:54:46.320Z,16.80
2019-06-10T20:57:15.831Z,16.90
2019-06-10T20:59:46.892Z,16.90
2019-06-10T21:02:16.648Z,16.90
2019-06-10T21:04:47.077Z,16.60
2019-06-10T21:07:18.304Z,16.50
2019-06-10T21:09:48.993Z,16.50
2019-06-10T21:12:19.315Z,16.50
2019-06-10T21:14:48.493Z,16.50
2019-06-10T21:17:17.763Z,16.40
2019-06-10T21:19:49.127Z,16.40
2019-06-10T21:22:18.756Z,16.40
2019-06-10T21:24:48.767Z,16.40
2019-06-10T21:27:17.976Z,16.30
2019-06-10T21:29:48.711Z,16.20
2019-06-10T21:32:17.713Z,16.20
2019-06-10T21:34:47.738Z,16.20
2019-06-10T21:37:16.951Z,16.20
2019-06-10T21:39:47.709Z,16.20
2019-06-10T21:42:17.407Z,16.20
2019-06-10T21:44:47.970Z,16.20
2019-06-10T21:47:17.204Z,16.20
2019-06-10T21:49:46.965Z,16.20
2019-06-10T21:52:16.432Z,16.30
2019-06-10T21:54:46.708Z,16.10
2019-06-10T21:57:16.364Z,16.20
2019-06-10T21:59:45.870Z,16.10
2019-06-10T22:02:19.283Z,16.20
2019-06-10T22:04:49.428Z,16.20
2019-06-10T22:07:18.435Z,16.20
2019-06-10T22:09:47.691Z,16.30
2019-06-10T22:12:17.563Z,16.30
2019-06-10T22:14:48.314Z,16.30
2019-06-10T22:17:17.139Z,16.30
2019-06-10T22:19:46.597Z,16.30
2019-06-10T22:22:16.131Z,16.40
2019-06-10T22:24:46.624Z,16.50
2019-06-10T22:27:16.016Z,16.50
2019-06-10T22:29:45.107Z,16.60
2019-06-10T22:32:14.147Z,16.60
2019-06-10T22:34:43.619Z,16.50
2019-06-10T22:37:13.538Z,16.60
2019-06-10T22:39:42.723Z,16.60
2019-06-10T22:42:12.283Z,16.50
2019-06-10T22:44:42.435Z,16.40
2019-06-10T22:47:12.161Z,16.40
2019-06-10T22:49:43.255Z,16.40
2019-06-10T22:52:13.156Z,16.40
2019-06-10T22:54:43.044Z,16.50
2019-06-10T22:57:12.968Z,16.60
2019-06-10T22:59:42.617Z,16.60
2019-06-10T23:02:13.203Z,16.70
2019-06-10T23:04:43.405Z,16.60
2019-06-10T23:07:13.391Z,16.60
2019-06-10T23:09:42.956Z,16.80
2019-06-10T23:12:12.588Z,16.80
2019-06-10T23:14:43.345Z,16.90
2019-06-10T23:17:31.556Z,16.90
2019-06-10T23:20:03.020Z,16.90
2019-06-10T23:22:31.995Z,16.80
2019-06-10T23:25:04.372Z,16.70
2019-06-10T23:27:33.567Z,16.80
2019-06-10T23:30:11.221Z,16.80
2019-06-10T23:32:35.323Z,16.90
2019-06-10T23:35:12.321Z,16.90
2019-06-10T23:37:42.662Z,16.90
2019-06-10T23:40:12.668Z,16.90
2019-06-10T23:42:41.748Z,16.90
2019-06-10T23:45:12.880Z,16.90
2019-06-10T23:47:43.253Z,17.00
2019-06-10T23:50:13.109Z,17.00
2019-06-10T23:52:43.459Z,17.00
2019-06-10T23:55:13.810Z,17.00
2019-06-10T23:57:42.604Z,16.90
